Time;durP1;ratioP1;P1;durP2;ratioP2;P2;SDS_P1;SDS_P2;PMS_P1;PMS_P2;Temp;Humidity;BMP_temperature;BMP_pressure;BME280_temperature;BME280_humidity;BME280_pressure;Samples;Min_cycle;Max_cycle;Signal;HPM_P1;HPM_P2
2022/01/23 00:00:38;;;;;;;37.67;31.23;;;;;;;4.14;99.10;103389.00;6432924;23;20016;-75
2022/01/23 00:03:16;;;;;;;37.45;31.48;;;;;;;4.11;99.08;103394.88;6434699;23;20001;-73
2022/01/23 00:05:51;;;;;;;37.15;31.33;;;;;;;4.12;99.02;103396.66;6434786;23;20012;-71
2022/01/23 00:08:24;;;;;;;39.28;30.95;;;;;;;4.10;98.95;103393.06;6433353;23;20020;-77
2022/01/23 00:10:56;;;;;;;43.40;31.58;;;;;;;4.14;99.22;103389.88;6435331;23;20005;-73
2022/01/23 00:17:15;;;;;;;39.50;30.70;;;;;;;4.14;98.85;103383.84;6434553;23;20304;-72
2022/01/23 00:19:15;;;;;;;37.40;31.75;;;;;;;4.09;99.12;103382.66;6434784;23;20036;-76
2022/01/23 00:21:51;;;;;;;37.97;31.30;;;;;;;4.08;99.67;103380.91;6435000;23;20422;-75
2022/01/23 00:30:28;;;;;;;36.67;30.13;;;;;;;4.07;99.17;103379.13;6433537;23;20020;-73
2022/01/23 00:33:02;;;;;;;37.85;30.15;;;;;;;4.10;99.44;103381.88;6433461;23;20005;-79
2022/01/23 00:35:38;;;;;;;38.55;30.67;;;;;;;4.08;99.29;103373.16;6433799;23;20390;-74
2022/01/23 00:38:11;;;;;;;40.22;30.80;;;;;;;4.10;99.32;103363.81;6433622;23;20001;-80
2022/01/23 00:40:43;;;;;;;;;;;;;;;4.14;99.18;103370.94;6433991;23;20063;-77
2022/01/23 00:43:33;;;;;;;35.73;29.13;;;;;;;4.10;99.36;103377.59;6433544;23;19935;-73
2022/01/23 00:46:30;;;;;;;37.30;31.02;;;;;;;4.08;99.36;103365.41;6432610;23;20009;-74
2022/01/23 00:51:33;;;;;;;39.30;30.43;;;;;;;4.03;99.56;103366.88;6433424;23;20028;-73
2022/01/23 00:54:07;;;;;;;39.70;30.75;;;;;;;4.04;99.58;103363.47;6432844;23;20248;-73
2022/01/23 00:56:39;;;;;;;37.53;29.70;;;;;;;4.06;99.70;103367.00;6432670;23;20439;-75
2022/01/23 00:59:10;;;;;;;36.47;30.60;;;;;;;4.08;99.30;103366.31;6433295;23;20009;-76
2022/01/23 01:01:42;;;;;;;36.57;30.70;;;;;;;4.09;99.34;103369.75;6433059;23;20008;-79
2022/01/23 01:04:13;;;;;;;35.30;29.17;;;;;;;4.05;99.38;103366.13;6433632;23;20016;-79
2022/01/23 01:06:45;;;;;;;39.97;31.43;;;;;;;4.08;99.63;103366.31;6432952;23;20013;-72
2022/01/23 01:09:18;;;;;;;33.17;28.42;;;;;;;4.05;99.46;103357.50;6432490;23;20487;-72
2022/01/23 01:34:07;;;;;;;35.22;28.05;;;;;;;4.09;99.40;103364.59;6376750;23;20103;-73
2022/01/23 01:36:53;;;;;;;37.83;28.73;;;;;;;4.06;99.37;103362.75;6367520;23;20072;-71
2022/01/23 01:39:27;;;;;;;37.25;28.63;;;;;;;4.07;99.56;103363.63;6367878;23;20152;-76
2022/01/23 01:41:58;;;;;;;35.63;27.70;;;;;;;4.06;99.71;103370.50;6367739;23;20021;-73
2022/01/23 01:44:30;;;;;;;38.23;30.40;;;;;;;4.04;99.55;103369.50;6367766;23;20018;-73
2022/01/23 01:47:02;;;;;;;29.70;25.55;;;;;;;4.08;99.60;103378.34;6367846;23;20021;-72
2022/01/23 01:49:33;;;;;;;36.88;27.67;;;;;;;4.06;99.35;103373.09;6367580;23;20024;-73
2022/01/23 01:52:05;;;;;;;34.60;26.87;;;;;;;4.07;99.28;103373.97;6367750;23;20010;-73
2022/01/23 01:54:37;;;;;;;34.15;26.60;;;;;;;4.10;99.24;103381.88;6367725;23;20518;-73
2022/01/23 01:57:10;;;;;;;35.60;28.30;;;;;;;4.11;99.22;103383.66;6403218;23;20374;-73
2022/01/23 02:08:32;;;;;;;35.97;29.40;;;;;;;4.05;99.10;103381.63;6432208;23;20422;-73
2022/01/23 02:11:05;;;;;;;32.13;27.85;;;;;;;4.07;99.71;103379.13;6427756;23;20009;-74
2022/01/23 02:13:53;;;;;;;36.25;29.45;;;;;;;4.07;99.44;103382.59;6432456;23;20005;-73
2022/01/23 02:55:48;;;;;;;35.30;27.55;;;;;;;3.98;99.61;103339.09;6344164;23;20019;-72
2022/01/23 02:58:22;;;;;;;37.35;28.50;;;;;;;3.96;99.95;103335.56;6338617;23;20014;-71
2022/01/23 03:01:29;;;;;;;40.15;28.80;;;;;;;3.98;100.00;103338.22;6338720;23;20030;-73
2022/01/23 03:03:58;;;;;;;38.33;27.75;;;;;;;3.96;99.86;103334.63;6334206;23;20010;-72
2022/01/23 03:06:53;;;;;;;34.65;26.70;;;;;;;3.98;99.92;103336.50;6338379;23;20494;-74
2022/01/23 03:12:38;;;;;;;35.60;25.77;;;;;;;4.03;99.75;103341.94;6338485;23;20085;-73
2022/01/23 03:15:17;;;;;;;33.38;25.20;;;;;;;4.01;99.71;103339.25;6381033;23;20450;-72
2022/01/23 03:29:40;;;;;;;37.88;27.65;;;;;;;4.04;99.53;103350.56;6399586;23;20024;-74
2022/01/23 03:32:20;;;;;;;30.92;24.25;;;;;;;4.04;99.64;103354.00;6399644;23;20013;-73
2022/01/23 03:34:51;;;;;;;34.30;27.13;;;;;;;4.03;99.48;103352.25;6399662;23;20010;-73
2022/01/23 03:37:23;;;;;;;34.70;26.40;;;;;;;4.08;99.53;103355.09;6399057;23;20025;-72
2022/01/23 03:39:54;;;;;;;38.43;27.23;;;;;;;4.09;99.75;103357.75;6399576;23;20009;-71
2022/01/23 03:42:27;;;;;;;34.20;26.00;;;;;;;4.07;99.52;103359.34;6399423;23;20013;-70
2022/01/23 03:45:42;;;;;;;32.88;27.25;;;;;;;4.05;99.35;103354.94;6399169;23;20033;-71
2022/01/23 03:49:30;;;;;;;39.08;27.23;;;;;;;4.04;99.22;103356.59;6379562;23;20427;-72
2022/01/23 03:50:46;;;;;;;35.17;25.38;;;;;;;4.08;99.21;103360.25;6399155;23;20010;-72
2022/01/23 03:53:17;;;;;;;34.53;26.70;;;;;;;4.07;99.40;103364.50;6399022;23;20049;-72
2022/01/23 03:55:50;;;;;;;31.23;26.47;;;;;;;4.07;99.41;103356.75;6399107;23;20443;-73
2022/01/23 03:58:22;;;;;;;33.05;27.02;;;;;;;4.06;99.05;103354.09;6399151;23;20534;-73
2022/01/23 04:00:53;;;;;;;30.97;26.40;;;;;;;4.08;99.14;103361.13;6399407;23;20095;-73
2022/01/23 04:03:26;;;;;;;32.87;26.63;;;;;;;4.05;99.09;103360.97;6416682;23;20485;-72
2022/01/23 04:05:57;;;;;;;36.67;27.20;;;;;;;4.04;99.04;103360.88;6433415;23;20053;-71
2022/01/23 04:08:29;;;;;;;39.03;28.37;;;;;;;4.07;99.14;103363.63;6433390;23;20072;-71
2022/01/23 04:11:01;;;;;;;38.63;28.87;;;;;;;4.07;99.04;103371.38;6433818;23;20032;-72
2022/01/23 04:13:59;;;;;;;40.75;28.65;;;;;;;4.06;99.14;103369.59;6433858;23;20139;-73
2022/01/23 05:01:01;;;;;;;36.03;29.55;;;;;;;4.06;99.42;103387.66;6432664;23;20335;-72
2022/01/23 05:06:26;;;;;;;38.20;29.15;;;;;;;4.01;99.94;103385.72;6432257;23;20063;-73
2022/01/23 05:08:57;;;;;;;38.72;30.52;;;;;;;4.04;99.88;103374.66;6432338;23;20220;-72
2022/01/23 05:11:28;;;;;;;47.63;31.80;;;;;;;4.04;99.95;103373.78;6404635;23;20009;-72
2022/01/23 05:14:04;;;;;;;41.73;30.77;;;;;;;4.08;100.00;103376.63;6432462;23;20005;-74
2022/01/23 05:16:35;;;;;;;42.35;29.85;;;;;;;4.10;100.00;103371.56;6432451;23;20598;-73
2022/01/23 05:19:07;;;;;;;36.33;31.40;;;;;;;4.10;100.00;103364.69;6432398;23;20009;-72
2022/01/23 05:24:10;;;;;;;43.83;31.07;;;;;;;4.10;99.88;103371.56;6432880;23;20009;-73
2022/01/23 05:26:44;;;;;;;45.67;31.60;;;;;;;4.09;100.00;103378.41;6432958;23;20012;-73
2022/01/23 05:29:16;;;;;;;39.78;32.28;;;;;;;4.08;99.89;103380.91;6432534;23;20075;-73
2022/01/23 05:31:50;;;;;;;39.83;30.73;;;;;;;4.11;99.96;103375.91;6432402;23;20009;-73
2022/01/23 05:34:22;;;;;;;40.92;31.95;;;;;;;4.16;100.00;103377.94;6432360;23;20031;-72
2022/01/23 05:36:54;;;;;;;40.50;31.13;;;;;;;4.10;99.93;103390.50;6432405;23;20064;-72
2022/01/23 05:39:27;;;;;;;40.43;30.47;;;;;;;4.12;99.96;103388.00;6432395;23;20005;-73
2022/01/23 05:42:06;;;;;;;38.58;30.65;;;;;;;4.10;99.81;103384.47;6432720;23;20029;-73
2022/01/23 05:44:40;;;;;;;44.67;30.88;;;;;;;4.13;99.97;103376.88;6432424;23;20099;-75
2022/01/23 05:47:12;;;;;;;41.65;29.17;;;;;;;4.10;99.61;103379.28;6432703;23;20028;-73
2022/01/23 05:49:43;;;;;;;38.43;30.57;;;;;;;4.15;99.55;103385.59;6432980;23;20059;-73
2022/01/23 05:52:15;;;;;;;42.43;31.87;;;;;;;4.17;99.91;103381.41;6432875;23;20036;-74
2022/01/23 05:54:46;;;;;;;41.90;30.50;;;;;;;4.14;99.67;103376.09;6432099;23;20009;-73
2022/01/23 05:57:18;;;;;;;40.37;31.70;;;;;;;4.11;99.77;103371.63;6432336;23;20036;-74
2022/01/23 05:59:50;;;;;;;41.27;29.63;;;;;;;4.12;99.61;103372.50;6432360;23;20334;-71
2022/01/23 06:02:21;;;;;;;38.53;29.83;;;;;;;4.11;99.51;103370.75;6432226;23;20117;-72
2022/01/23 06:04:53;;;;;;;41.57;30.07;;;;;;;4.13;99.70;103375.19;6432297;23;20498;-71
2022/01/23 06:07:24;;;;;;;36.20;29.40;;;;;;;4.12;99.66;103376.00;6432110;23;20004;-72
2022/01/23 06:09:55;;;;;;;34.87;28.67;;;;;;;4.07;99.89;103379.13;6432445;23;20028;-72
2022/01/23 06:12:27;;;;;;;40.70;29.93;;;;;;;4.04;100.00;103372.09;6432232;23;20009;-72
2022/01/23 06:14:58;;;;;;;39.77;32.50;;;;;;;3.98;100.00;103374.34;6432394;23;20419;-73
2022/01/23 06:17:29;;;;;;;44.73;32.90;;;;;;;3.98;100.00;103371.78;6432756;23;20090;-75
2022/01/23 06:20:01;;;;;;;40.70;32.53;;;;;;;3.98;100.00;103372.66;6433871;23;20016;-72
2022/01/23 06:22:33;;;;;;;40.25;31.55;;;;;;;3.98;100.00;103375.22;6434671;23;20005;-72
2022/01/23 06:25:08;;;;;;;42.60;33.43;;;;;;;4.00;100.00;103381.34;6434543;23;20012;-73
2022/01/23 06:27:40;;;;;;;39.50;31.23;;;;;;;4.04;100.00;103376.38;6434049;23;20009;-72
2022/01/23 06:30:11;;;;;;;41.03;33.47;;;;;;;4.05;100.00;103376.44;6434630;23;20005;-72
2022/01/23 06:32:42;;;;;;;40.07;32.30;;;;;;;4.05;100.00;103373.00;6434392;23;20008;-74
2022/01/23 06:35:14;;;;;;;42.67;31.17;;;;;;;4.08;99.86;103378.34;6434412;23;20727;-73
2022/01/23 06:37:45;;;;;;;37.40;29.73;;;;;;;4.09;100.00;103380.09;6434037;23;20064;-72
2022/01/23 06:40:17;;;;;;;41.53;32.70;;;;;;;4.00;100.00;103381.34;6434080;23;20019;-73
2022/01/23 06:42:48;;;;;;;40.90;32.33;;;;;;;3.96;100.00;103376.84;6433674;23;20056;-71
2022/01/23 06:45:19;;;;;;;47.43;32.73;;;;;;;4.00;100.00;103386.50;6434652;23;20080;-71
2022/01/23 06:47:51;;;;;;;42.93;33.27;;;;;;;4.01;100.00;103392.59;6433344;23;20001;-71
2022/01/23 06:50:24;;;;;;;40.60;31.57;;;;;;;4.03;100.00;103398.72;6433874;23;20016;-71
2022/01/23 06:52:56;;;;;;;38.47;30.38;;;;;;;4.01;100.00;103400.34;6434403;23;20009;-71
2022/01/23 06:55:27;;;;;;;37.73;30.37;;;;;;;4.04;100.00;103399.59;6433567;23;20017;-74
2022/01/23 06:57:58;;;;;;;42.43;32.30;;;;;;;4.06;100.00;103397.97;6434130;23;20067;-75
2022/01/23 07:00:32;;;;;;;42.70;32.93;;;;;;;4.06;100.00;103393.72;6434004;23;20188;-74
2022/01/23 07:03:04;;;;;;;39.40;30.50;;;;;;;4.05;99.99;103393.66;6433503;23;20005;-72
2022/01/23 07:05:35;;;;;;;42.43;31.93;;;;;;;4.10;100.00;103412.84;6433418;23;20026;-72
2022/01/23 07:08:07;;;;;;;41.30;32.47;;;;;;;4.08;100.00;103407.59;6434039;23;20005;-73
2022/01/23 07:10:38;;;;;;;40.87;32.97;;;;;;;4.11;100.00;103412.94;6433560;23;20371;-72
2022/01/23 07:13:09;;;;;;;43.43;33.60;;;;;;;4.08;100.00;103412.75;6430740;23;20067;-73
2022/01/23 07:15:41;;;;;;;53.07;34.03;;;;;;;4.05;100.00;103416.88;6432830;23;20016;-72
2022/01/23 07:18:12;;;;;;;39.57;31.03;;;;;;;4.04;100.00;103418.53;6432936;23;20328;-72
2022/01/23 07:20:45;;;;;;;44.57;33.87;;;;;;;4.04;100.00;103421.13;6433658;23;20021;-72
2022/01/23 07:23:21;;;;;;;44.47;32.30;;;;;;;4.02;100.00;103417.56;6433268;23;20098;-72
2022/01/23 07:25:53;;;;;;;41.53;32.58;;;;;;;4.04;100.00;103426.28;6432627;23;20088;-72
2022/01/23 07:28:35;;;;;;;41.60;32.43;;;;;;;4.06;99.99;103432.44;6433749;23;20033;-73
2022/01/23 07:31:08;;;;;;;45.40;33.60;;;;;;;4.08;100.00;103432.53;6406404;23;20009;-72
2022/01/23 07:33:39;;;;;;;42.17;31.65;;;;;;;4.06;100.00;103434.13;6433439;23;20009;-71
2022/01/23 07:36:11;;;;;;;41.47;31.87;;;;;;;4.10;100.00;103433.50;6431949;23;20017;-73
2022/01/23 07:38:42;;;;;;;44.47;32.20;;;;;;;4.12;100.00;103439.63;6432936;23;20032;-73
2022/01/23 07:41:13;;;;;;;42.63;32.00;;;;;;;4.05;100.00;103437.53;6432220;23;20001;-71
2022/01/23 07:43:45;;;;;;;45.87;32.93;;;;;;;4.07;100.00;103441.94;6433163;23;20009;-71
2022/01/23 07:46:16;;;;;;;41.03;32.43;;;;;;;4.07;100.00;103443.66;6433074;23;20397;-73
2022/01/23 07:48:48;;;;;;;43.50;33.27;;;;;;;4.06;100.00;103449.59;6433063;23;20009;-72
2022/01/23 07:51:19;;;;;;;44.90;33.47;;;;;;;4.07;99.92;103446.22;6431990;23;20040;-72
2022/01/23 07:53:51;;;;;;;40.77;33.60;;;;;;;4.11;99.75;103454.25;6433166;23;20423;-73
2022/01/23 07:56:22;;;;;;;43.80;34.17;;;;;;;4.10;100.00;103449.00;6433148;23;20036;-75
2022/01/23 07:58:53;;;;;;;43.67;32.03;;;;;;;4.16;100.00;103457.09;6432790;23;20024;-73
2022/01/23 08:01:25;;;;;;;42.73;32.03;;;;;;;4.14;100.00;103453.53;6433147;23;19997;-76
2022/01/23 08:03:57;;;;;;;46.33;33.73;;;;;;;4.15;99.99;103452.72;6433297;23;20009;-74
2022/01/23 08:06:28;;;;;;;45.57;34.30;;;;;;;4.14;100.00;103449.25;6433259;23;20005;-72
2022/01/23 08:09:00;;;;;;;44.00;34.37;;;;;;;4.21;100.00;103455.66;6433599;23;20009;-74
2022/01/23 08:11:31;;;;;;;45.20;33.67;;;;;;;4.18;100.00;103458.06;6430559;23;20012;-72
2022/01/23 08:14:03;;;;;;;51.37;33.07;;;;;;;4.15;99.86;103448.47;6432568;23;20166;-73
2022/01/23 08:16:35;;;;;;;42.27;33.83;;;;;;;4.21;99.95;103458.22;6430652;23;20009;-73
2022/01/23 08:19:07;;;;;;;43.78;32.60;;;;;;;4.20;100.00;103459.94;6432801;23;20001;-73
2022/01/23 08:21:39;;;;;;;42.17;33.63;;;;;;;4.26;100.00;103467.13;6432300;23;20454;-73
2022/01/23 08:24:11;;;;;;;45.83;34.33;;;;;;;4.29;99.97;103456.09;6432457;23;20005;-75
2022/01/23 08:26:42;;;;;;;43.85;34.03;;;;;;;4.29;99.59;103456.97;6431952;23;20093;-74
2022/01/23 08:29:14;;;;;;;42.93;34.07;;;;;;;4.31;99.31;103457.94;6432486;23;20036;-73
2022/01/23 08:31:45;;;;;;;48.80;34.50;;;;;;;4.32;99.49;103462.31;6432295;23;20001;-73
2022/01/23 08:34:16;;;;;;;48.17;36.03;;;;;;;4.35;99.06;103465.06;6432811;23;20052;-73
2022/01/23 08:36:48;;;;;;;44.27;34.20;;;;;;;4.39;98.76;103466.13;6431894;23;20021;-73
2022/01/23 08:39:22;;;;;;;38.70;32.10;;;;;;;4.43;98.67;103464.59;6432108;23;20012;-74
2022/01/23 08:41:53;;;;;;;44.50;34.42;;;;;;;4.44;98.43;103475.00;6432386;23;19997;-74
2022/01/23 08:44:28;;;;;;;45.30;33.90;;;;;;;4.49;98.55;103485.59;6432665;23;20083;-73
2022/01/23 08:47:01;;;;;;;45.20;33.50;;;;;;;4.49;98.00;103483.94;6432133;23;20008;-73
2022/01/23 08:49:33;;;;;;;48.70;34.45;;;;;;;4.46;97.75;103477.69;6432489;23;20419;-73
2022/01/23 08:52:05;;;;;;;;;;;;;;;4.63;98.24;103492.41;6433376;23;20067;-72
2022/01/23 08:54:36;;;;;;;43.75;33.80;;;;;;;4.53;98.03;103492.72;6432196;23;19916;-73
2022/01/23 08:57:08;;;;;;;44.13;32.90;;;;;;;4.55;98.35;103489.41;6431839;23;20354;-75
2022/01/23 08:59:41;;;;;;;47.13;33.20;;;;;;;4.59;97.94;103497.31;6431706;23;20009;-76
2022/01/23 09:02:13;;;;;;;50.83;34.97;;;;;;;4.54;97.22;103494.47;6406100;23;20009;-74
2022/01/23 09:04:45;;;;;;;42.37;34.60;;;;;;;4.53;97.40;103491.03;6432442;23;20036;-74
2022/01/23 09:07:17;;;;;;;;;;;;;;;4.66;97.67;103492.59;6430002;23;20127;-72
2022/01/23 09:09:49;;;;;;;44.72;33.53;;;;;;;4.57;97.33;103489.50;6432170;23;19940;-72
2022/01/23 09:15:10;;;;;;;46.28;33.67;;;;;;;4.66;97.59;103489.13;6442315;23;20023;-72
2022/01/23 09:17:41;;;;;;;40.70;33.00;;;;;;;4.67;97.36;103491.81;6431762;23;20501;-72
2022/01/23 09:20:13;;;;;;;46.37;33.73;;;;;;;4.66;96.96;103487.44;6432101;23;20490;-73
2022/01/23 09:22:44;;;;;;;44.00;32.73;;;;;;;4.69;96.69;103489.31;6432440;23;20063;-73
2022/01/23 09:25:16;;;;;;;41.73;33.30;;;;;;;4.74;96.62;103482.69;6432292;23;20083;-76
2022/01/23 09:27:47;;;;;;;41.97;33.60;;;;;;;4.83;96.95;103482.28;6428995;23;20016;-75
2022/01/23 09:30:21;;;;;;;43.20;32.83;;;;;;;4.76;96.40;103475.91;6429220;23;20009;-73
2022/01/23 09:32:53;;;;;;;46.60;33.85;;;;;;;4.74;95.75;103483.56;6431976;23;20001;-74
2022/01/23 09:35:24;;;;;;;43.47;33.30;;;;;;;4.75;96.04;103481.88;6432405;23;20332;-73
2022/01/23 09:37:55;;;;;;;39.83;32.97;;;;;;;4.85;96.04;103488.44;6432346;23;20013;-76
2022/01/23 09:40:27;;;;;;;39.77;32.23;;;;;;;4.88;95.99;103486.03;6429178;23;20013;-75
2022/01/23 09:43:05;;;;;;;39.53;30.97;;;;;;;5.01;95.93;103491.03;6431381;23;20013;-74
2022/01/23 09:45:38;;;;;;;43.13;33.97;;;;;;;5.09;95.61;103496.63;6431530;23;20037;-73
2022/01/23 09:48:10;;;;;;;41.17;33.17;;;;;;;5.15;95.18;103499.53;6431693;23;20001;-74
2022/01/23 09:50:44;;;;;;;41.65;32.70;;;;;;;5.14;94.07;103494.31;6432634;23;20617;-75
2022/01/23 09:53:16;;;;;;;45.50;34.05;;;;;;;5.15;94.27;103498.63;6433231;23;20009;-74
2022/01/23 09:55:49;;;;;;;40.23;32.17;;;;;;;5.13;93.83;103500.25;6428515;23;20017;-76
2022/01/23 09:58:21;;;;;;;42.00;34.05;;;;;;;5.08;93.76;103513.81;6433352;23;20025;-74
2022/01/23 10:00:52;;;;;;;47.53;35.00;;;;;;;5.11;94.14;103510.53;6433625;23;20017;-75
2022/01/23 10:03:24;;;;;;;45.20;33.50;;;;;;;5.21;93.84;103505.03;6433841;23;20252;-74
2022/01/23 10:05:56;;;;;;;40.73;32.17;;;;;;;5.30;93.98;103510.69;6433653;23;20051;-72
2022/01/23 10:08:28;;;;;;;42.33;33.85;;;;;;;5.29;93.38;103518.38;6433916;23;20426;-75
2022/01/23 10:11:00;;;;;;;;;;;;;;;5.49;94.17;103511.66;6434511;23;20011;-73
2022/01/23 10:13:32;;;;;;;47.83;32.20;;;;;;;5.42;93.21;103510.44;6433807;23;19912;-74
2022/01/23 10:16:03;;;;;;;46.57;34.17;;;;;;;5.55;93.36;103508.50;6434156;23;20076;-74
2022/01/23 10:18:35;;;;;;;43.57;35.50;;;;;;;5.52;92.67;103511.81;6434145;23;20017;-73
2022/01/23 10:21:06;;;;;;;52.73;36.63;;;;;;;5.60;92.41;103510.53;6434516;23;20096;-74
2022/01/23 10:23:38;;;;;;;46.23;36.63;;;;;;;5.61;92.21;103508.81;6434546;23;20005;-76
2022/01/23 10:26:14;;;;;;;41.78;32.38;;;;;;;5.70;91.94;103506.72;6434911;23;20009;-74
2022/01/23 10:28:47;;;;;;;40.92;32.03;;;;;;;5.73;91.18;103498.19;6434591;23;20744;-75
2022/01/23 10:31:18;;;;;;;38.80;31.17;;;;;;;5.71;90.59;103505.88;6434253;23;20386;-74
2022/01/23 10:33:50;;;;;;;41.60;31.20;;;;;;;5.71;90.70;103492.94;6406757;23;20305;-73
2022/01/23 10:36:21;;;;;;;38.70;30.98;;;;;;;5.75;90.91;103500.06;6433797;23;20016;-74
2022/01/23 10:38:54;;;;;;;38.33;30.37;;;;;;;5.71;89.78;103500.69;6433561;23;20012;-74
2022/01/23 10:41:42;;;;;;;;;;;;;;;5.91;90.00;103498.22;6434795;23;20015;-74
2022/01/23 10:50:00;;;;;;;40.83;31.95;;;;;;;5.90;90.15;103499.06;6434525;23;20343;-75
2022/01/23 10:52:38;;;;;;;39.42;30.45;;;;;;;6.02;90.06;103503.19;6433907;23;20032;-75
2022/01/23 10:55:12;;;;;;;41.25;32.03;;;;;;;6.12;89.34;103493.28;6434219;23;20076;-77
2022/01/23 10:57:46;;;;;;;37.97;31.73;;;;;;;6.06;89.20;103491.28;6433979;23;20005;-77
2022/01/23 11:00:26;;;;;;;42.28;32.35;;;;;;;6.05;89.44;103486.00;6433950;23;20450;-73
2022/01/23 11:02:59;;;;;;;37.80;31.63;;;;;;;5.98;88.28;103495.19;6433664;23;20315;-74
2022/01/23 11:05:39;;;;;;;35.67;29.63;;;;;;;6.07;88.53;103498.25;6433666;23;20518;-76
2022/01/23 11:08:27;;;;;;;34.20;29.45;;;;;;;6.25;88.64;103494.75;6432312;23;20009;-73
2022/01/23 11:11:07;;;;;;;35.60;29.33;;;;;;;6.28;88.02;103493.22;6433763;23;20056;-74
2022/01/23 11:19:35;;;;;;;38.60;30.30;;;;;;;6.22;87.04;103476.50;6433294;23;20768;-77
2022/01/23 11:22:15;;;;;;;42.38;30.75;;;;;;;6.21;86.91;103473.00;6433765;23;20095;-74
2022/01/23 11:24:48;;;;;;;34.97;29.60;;;;;;;6.27;87.18;103481.06;6433297;23;20145;-76
2022/01/23 11:27:29;;;;;;;43.85;30.25;;;;;;;6.33;86.79;103481.38;6433483;23;20005;-73
2022/01/23 11:30:04;;;;;;;35.72;29.88;;;;;;;6.43;87.38;103474.91;6433263;23;20005;-73
2022/01/23 11:32:39;;;;;;;39.08;30.52;;;;;;;6.50;86.75;103478.69;6433700;23;20008;-77
2022/01/23 11:35:14;;;;;;;35.22;29.65;;;;;;;6.56;86.23;103474.69;6433315;23;20015;-74
2022/01/23 11:37:51;;;;;;;34.15;29.48;;;;;;;6.53;85.63;103471.94;6432802;23;20021;-74
2022/01/23 11:50:33;;;;;;;34.83;29.77;;;;;;;6.61;85.82;103474.91;6431954;23;20021;-73
2022/01/23 11:55:36;;;;;;;38.17;30.05;;;;;;;6.73;86.35;103469.41;6432687;23;20033;-74
2022/01/23 11:58:34;;;;;;;37.72;31.10;;;;;;;6.73;86.30;103459.91;6434067;23;20013;-72
2022/01/23 12:01:21;;;;;;;38.42;28.88;;;;;;;6.66;86.55;103462.16;6432028;23;20013;-73
2022/01/23 12:04:16;;;;;;;43.67;30.85;;;;;;;6.75;86.92;103463.47;6432537;23;20434;-74
2022/01/23 12:07:13;;;;;;;35.55;29.30;;;;;;;6.75;85.98;103452.22;6433009;23;20489;-73
2022/01/23 12:10:26;;;;;;;36.33;27.70;;;;;;;6.69;85.04;103459.72;6433315;23;20029;-78
2022/01/23 12:16:22;;;;;;;30.63;26.17;;;;;;;6.52;84.64;103454.63;6432883;23;20012;-73
2022/01/23 12:19:20;;;;;;;35.20;29.02;;;;;;;6.36;85.30;103440.06;6443501;23;20032;-73
2022/01/23 12:21:53;;;;;;;32.40;26.17;;;;;;;6.52;85.02;103440.75;6433277;23;20036;-72
2022/01/23 12:24:26;;;;;;;30.17;25.55;;;;;;;6.59;84.59;103435.06;6433178;23;20005;-73
2022/01/23 12:27:21;;;;;;;30.55;25.67;;;;;;;6.75;84.58;103441.84;6433984;23;20005;-72
2022/01/23 12:30:12;;;;;;;30.83;25.02;;;;;;;6.75;82.72;103439.25;6406888;23;20001;-72
2022/01/23 12:32:43;;;;;;;30.40;24.30;;;;;;;6.84;82.90;103428.41;6433737;23;20005;-72
2022/01/23 12:35:15;;;;;;;30.10;25.23;;;;;;;6.91;83.51;103441.72;6433593;23;20013;-71
2022/01/23 12:37:58;;;;;;;28.48;23.33;;;;;;;6.88;82.07;103431.19;6434028;23;20024;-73
2022/01/23 12:40:43;;;;;;;28.27;24.30;;;;;;;6.80;81.90;103434.28;6433788;23;20020;-72
2022/01/23 12:43:35;;;;;;;31.80;23.95;;;;;;;6.88;82.09;103430.31;6434440;23;20017;-73
2022/01/23 12:46:12;;;;;;;29.90;24.85;;;;;;;6.79;81.45;103435.97;6434272;23;20419;-73
2022/01/23 12:48:47;;;;;;;29.75;24.60;;;;;;;6.86;82.36;103421.56;6433265;23;20071;-72
2022/01/23 12:51:18;;;;;;;34.55;26.35;;;;;;;6.85;82.09;103428.47;6434175;23;20059;-77
2022/01/23 12:53:49;;;;;;;29.23;23.10;;;;;;;6.91;81.77;103423.56;6433917;23;20032;-73
2022/01/23 12:56:41;;;;;;;29.83;23.47;;;;;;;6.94;82.21;103420.25;6434533;23;20334;-75
2022/01/23 12:59:25;;;;;;;29.73;24.55;;;;;;;6.81;80.18;103420.47;6434472;23;20031;-74
2022/01/23 13:02:01;;;;;;;28.77;25.02;;;;;;;6.86;81.02;103418.97;6433701;23;20084;-76
2022/01/23 13:04:42;;;;;;;30.48;25.70;;;;;;;6.85;81.08;103414.63;6434163;23;20368;-74
2022/01/23 13:07:38;;;;;;;32.05;26.27;;;;;;;6.88;81.79;103415.66;6433307;23;20036;-74
2022/01/23 13:10:29;;;;;;;30.48;24.38;;;;;;;6.85;80.59;103409.44;6433271;23;20370;-73
2022/01/23 13:13:16;;;;;;;35.60;25.52;;;;;;;6.86;80.99;103406.00;6432955;23;20009;-74
2022/01/23 13:30:29;;;;;;;33.33;24.25;;;;;;;6.97;79.91;103393.53;6339771;23;20384;-73
2022/01/23 13:33:11;;;;;;;33.83;24.98;;;;;;;6.88;79.61;103407.00;6337622;23;20044;-74
2022/01/23 13:35:49;;;;;;;32.60;24.95;;;;;;;6.73;80.04;103399.41;6337582;23;20026;-75
2022/01/23 13:38:33;;;;;;;30.50;25.35;;;;;;;6.75;80.43;103396.06;6337523;23;20054;-73
2022/01/23 13:41:21;;;;;;;34.22;25.15;;;;;;;6.82;81.03;103396.34;6337457;23;20352;-73
2022/01/23 13:52:42;;;;;;;34.03;25.83;;;;;;;6.73;81.07;103392.53;6338706;23;20040;-75
2022/01/23 14:01:16;;;;;;;79.72;64.93;;;;;;;6.92;81.34;103391.66;6350467;23;20336;-74
2022/01/23 14:03:48;;;;;;;37.45;30.20;;;;;;;6.86;80.93;103387.88;6432903;23;20009;-73
2022/01/23 14:06:20;;;;;;;35.23;29.07;;;;;;;6.80;80.53;103380.72;6434215;23;20376;-74
2022/01/23 14:09:06;;;;;;;32.60;26.05;;;;;;;6.82;81.39;103379.06;6434019;23;20009;-76
2022/01/23 14:11:38;;;;;;;36.38;27.08;;;;;;;6.74;80.91;103368.34;6434240;23;20055;-75
2022/01/23 14:14:12;;;;;;;41.42;31.75;;;;;;;6.79;81.22;103372.88;6433872;23;20008;-73
2022/01/23 14:16:46;;;;;;;39.22;31.30;;;;;;;6.71;81.50;103375.13;6433171;23;20154;-73
2022/01/23 14:19:38;;;;;;;36.25;30.27;;;;;;;6.75;81.70;103380.50;6433529;23;20067;-76
2022/01/23 14:22:09;;;;;;;39.10;29.23;;;;;;;6.79;81.52;103386.72;6429143;23;20012;-74
2022/01/23 14:24:40;;;;;;;36.50;28.70;;;;;;;6.69;81.58;103381.94;6432071;23;20005;-74
2022/01/23 14:27:13;;;;;;;32.80;27.43;;;;;;;6.63;82.17;103379.06;6431179;23;20101;-76
2022/01/23 14:29:52;;;;;;;;;;;;;;;6.82;83.24;103388.56;6432154;23;20000;-74
2022/01/23 14:32:41;;;;;;;37.38;27.58;;;;;;;6.63;83.47;103386.84;6432033;23;19923;-75
2022/01/23 14:35:26;;;;;;;36.53;28.85;;;;;;;6.61;82.40;103394.56;6432077;23;20232;-75
2022/01/23 14:38:22;;;;;;;34.35;28.40;;;;;;;6.64;83.58;103388.63;6431191;23;20096;-76
2022/01/23 14:41:01;;;;;;;35.53;27.45;;;;;;;6.61;83.47;103393.66;6433926;23;20012;-73
2022/01/23 14:43:39;;;;;;;35.53;26.65;;;;;;;6.55;82.99;103397.75;6434682;23;20009;-73
2022/01/23 14:46:16;;;;;;;29.70;26.42;;;;;;;6.53;82.66;103396.78;6434325;23;20978;-73
2022/01/23 14:48:49;;;;;;;37.28;28.35;;;;;;;6.45;82.64;103392.94;6433818;23;20016;-74
2022/01/23 14:51:24;;;;;;;37.80;30.17;;;;;;;6.52;83.63;103394.13;6433968;23;20008;-74
2022/01/23 14:53:55;;;;;;;37.55;28.95;;;;;;;6.38;83.02;103396.09;6434202;23;20048;-73
2022/01/23 14:56:29;;;;;;;39.30;28.53;;;;;;;6.43;84.23;103388.53;6434510;23;20013;-74
2022/01/23 14:59:01;;;;;;;36.33;30.23;;;;;;;6.39;83.71;103390.06;6433845;23;20520;-73
2022/01/23 15:01:33;;;;;;;35.37;30.10;;;;;;;6.37;84.79;103387.41;6433664;23;20076;-75
2022/01/23 15:04:08;;;;;;;37.10;28.02;;;;;;;6.40;85.11;103386.69;6433590;23;20089;-73
2022/01/23 15:06:49;;;;;;;35.88;28.52;;;;;;;6.39;85.08;103396.16;6433735;23;20358;-72
2022/01/23 15:09:22;;;;;;;35.35;27.17;;;;;;;6.33;84.50;103392.41;6433163;23;20009;-73
2022/01/23 15:11:54;;;;;;;33.67;28.95;;;;;;;6.31;85.88;103383.66;6432909;23;20430;-77
2022/01/23 15:14:25;;;;;;;34.17;27.03;;;;;;;6.30;85.96;103385.38;6433554;23;20009;-75
2022/01/23 15:16:57;;;;;;;33.90;27.50;;;;;;;6.32;86.30;103382.84;6434149;23;20005;-73
2022/01/23 15:19:29;;;;;;;35.83;27.85;;;;;;;6.25;86.31;103384.28;6435965;23;20028;-74